createdAt,value
2022-11-29T00:02:04.332Z,73.43
2022-11-29T00:04:30.920Z,82.20
2022-11-29T00:06:57.423Z,78.75
2022-11-29T00:09:24.023Z,81.55
2022-11-29T00:12:09.148Z,74.00
2022-11-29T00:14:35.634Z,67.95
2022-11-29T00:17:03.269Z,66.83
2022-11-29T00:19:31.158Z,52.63
2022-11-29T00:21:59.214Z,58.90
2022-11-29T00:24:25.962Z,70.10
2022-11-29T00:26:52.693Z,90.55
2022-11-29T00:29:19.232Z,84.60
2022-11-29T00:31:45.768Z,74.18
2022-11-29T00:34:12.991Z,86.63
2022-11-29T00:36:40.068Z,73.88
2022-11-29T00:39:07.093Z,86.18
2022-11-29T00:41:33.769Z,90.13
2022-11-29T00:44:00.588Z,87.53
2022-11-29T00:46:27.160Z,90.18
2022-11-29T00:48:53.818Z,86.22
2022-11-29T00:51:20.399Z,88.03
2022-11-29T00:53:47.022Z,96.53
2022-11-29T00:56:14.013Z,100.90
2022-11-29T00:58:43.490Z,72.80
2022-11-29T01:01:11.181Z,78.95
2022-11-29T01:03:38.276Z,75.07
2022-11-29T01:06:07.993Z,74.10
2022-11-29T01:08:35.264Z,71.97
2022-11-29T01:11:13.154Z,76.35
2022-11-29T01:13:40.612Z,75.68
2022-11-29T01:16:07.707Z,68.38
2022-11-29T01:18:34.864Z,72.60
2022-11-29T01:21:08.241Z,72.15
2022-11-29T01:23:35.776Z,70.85
2022-11-29T01:26:06.039Z,54.25
2022-11-29T01:28:33.415Z,60.75
2022-11-29T01:31:00.145Z,68.50
2022-11-29T01:33:26.726Z,81.40
2022-11-29T01:35:54.535Z,83.70
2022-11-29T01:38:21.976Z,69.93
2022-11-29T01:41:01.680Z,65.63
2022-11-29T01:43:29.059Z,58.17
2022-11-29T01:45:56.297Z,62.20
2022-11-29T01:48:26.681Z,65.90
2022-11-29T01:50:54.989Z,66.38
2022-11-29T01:53:22.347Z,58.83
2022-11-29T01:55:54.196Z,60.17
2022-11-29T01:58:21.424Z,53.75
2022-11-29T02:00:48.420Z,56.50
2022-11-29T02:03:17.043Z,52.20
2022-11-29T02:05:47.823Z,58.55
2022-11-29T02:08:19.983Z,61.53
2022-11-29T02:11:20.433Z,52.97
2022-11-29T02:14:12.294Z,64.00
2022-11-29T02:17:10.479Z,52.63
2022-11-29T02:20:14.412Z,49.72
2022-11-29T02:23:06.669Z,53.60
2022-11-29T02:25:35.851Z,51.55
2022-11-29T02:28:18.528Z,54.85
2022-11-29T02:31:20.455Z,51.25
2022-11-29T02:34:10.870Z,49.50
2022-11-29T02:37:18.491Z,51.73
2022-11-29T02:40:22.166Z,58.95
2022-11-29T02:43:19.349Z,55.50
2022-11-29T02:45:54.335Z,47.70
2022-11-29T02:48:42.661Z,50.85
2022-11-29T02:51:22.611Z,55.23
2022-11-29T02:54:20.484Z,49.25
2022-11-29T02:57:14.591Z,50.30
2022-11-29T02:59:47.194Z,50.65
2022-11-29T03:02:32.443Z,52.03
2022-11-29T03:05:12.631Z,51.80
2022-11-29T03:08:03.463Z,45.78
2022-11-29T03:10:43.510Z,45.60
2022-11-29T03:13:24.020Z,53.78
2022-11-29T03:15:59.810Z,54.60
2022-11-29T03:18:51.523Z,52.57
2022-11-29T03:21:31.327Z,50.78
2022-11-29T03:24:04.894Z,49.20
2022-11-29T03:26:41.546Z,60.95
2022-11-29T03:29:26.586Z,59.75
2022-11-29T03:32:02.442Z,95.57
2022-11-29T03:35:02.933Z,48.38
2022-11-29T03:37:40.435Z,52.97
2022-11-29T03:40:11.769Z,87.10
2022-11-29T03:43:14.170Z,86.93
2022-11-29T03:46:02.895Z,99.93
2022-11-29T03:48:41.011Z,73.10
2022-11-29T03:51:18.824Z,88.15
2022-11-29T03:53:51.998Z,64.63
2022-11-29T03:56:34.708Z,72.55
2022-11-29T03:59:07.304Z,54.10
2022-11-29T04:02:10.998Z,71.13
2022-11-29T04:05:06.679Z,66.25
2022-11-29T04:08:01.928Z,70.80
2022-11-29T04:10:51.814Z,86.82
2022-11-29T04:14:05.763Z,84.60
2022-11-29T04:17:12.688Z,57.05
2022-11-29T04:20:03.465Z,44.30
2022-11-29T04:22:52.773Z,71.40
2022-11-29T04:25:49.410Z,48.53
2022-11-29T04:28:23.333Z,84.70
2022-11-29T04:31:33.364Z,120.78
2022-11-29T04:34:20.477Z,91.40
2022-11-29T04:37:24.425Z,95.95
2022-11-29T04:40:20.352Z,86.53
2022-11-29T04:43:03.225Z,78.53
2022-11-29T04:45:48.143Z,111.25
2022-11-29T04:48:32.695Z,84.93
2022-11-29T04:51:26.272Z,49.75
2022-11-29T04:54:08.149Z,62.85
2022-11-29T04:56:45.574Z,57.03
2022-11-29T04:59:38.084Z,39.90
2022-11-29T05:02:10.695Z,61.10
2022-11-29T05:04:53.528Z,63.38
2022-11-29T05:07:51.122Z,38.63
2022-11-29T05:10:39.118Z,77.27
2022-11-29T05:13:18.392Z,64.75
2022-11-29T05:16:06.997Z,62.38
2022-11-29T05:18:57.662Z,55.20
2022-11-29T05:22:01.959Z,56.90
2022-11-29T05:24:45.740Z,53.13
2022-11-29T05:27:33.383Z,45.90
2022-11-29T05:30:06.592Z,40.65
2022-11-29T05:32:45.055Z,49.47
2022-11-29T05:35:29.522Z,45.95
2022-11-29T05:38:23.404Z,63.43
2022-11-29T05:40:59.422Z,58.22
2022-11-29T05:43:56.297Z,63.10
2022-11-29T05:46:31.159Z,49.40
2022-11-29T05:49:14.016Z,46.28
2022-11-29T05:51:50.465Z,41.30
2022-11-29T05:54:42.456Z,51.10
2022-11-29T05:57:33.808Z,23.95
2022-11-29T06:00:05.572Z,33.80
2022-11-29T06:03:00.053Z,27.17
2022-11-29T06:05:35.971Z,23.63
2022-11-29T06:08:13.278Z,37.30
2022-11-29T06:10:52.192Z,30.55
2022-11-29T06:13:50.955Z,46.65
2022-11-29T06:16:25.124Z,27.58
2022-11-29T06:19:30.567Z,35.13
2022-11-29T06:22:27.027Z,32.60
2022-11-29T06:25:11.010Z,25.83
2022-11-29T06:28:07.364Z,28.88
2022-11-29T06:30:48.970Z,37.25
2022-11-29T06:33:25.043Z,56.83
2022-11-29T06:36:17.767Z,43.88
2022-11-29T06:38:44.838Z,38.55
2022-11-29T06:41:19.470Z,36.85
2022-11-29T06:43:46.349Z,39.55
2022-11-29T06:46:25.174Z,40.80
2022-11-29T06:49:02.094Z,32.55
2022-11-29T06:51:36.245Z,45.88
2022-11-29T06:54:10.852Z,38.03
2022-11-29T06:56:44.294Z,30.98
2022-11-29T06:59:34.477Z,38.47
2022-11-29T07:02:10.994Z,38.20
2022-11-29T07:04:51.066Z,35.88
2022-11-29T07:07:22.941Z,29.83
2022-11-29T07:09:52.238Z,27.80
2022-11-29T07:12:19.318Z,42.80
2022-11-29T07:14:46.955Z,39.67
2022-11-29T07:17:30.959Z,25.40
2022-11-29T07:20:10.010Z,53.63
2022-11-29T07:23:03.012Z,33.05
2022-11-29T07:25:39.954Z,37.80
2022-11-29T07:28:31.842Z,45.03
2022-11-29T07:31:16.282Z,40.75
2022-11-29T07:33:54.759Z,26.85
2022-11-29T07:36:38.211Z,35.15
2022-11-29T07:39:22.716Z,28.73
2022-11-29T07:41:55.168Z,27.90
2022-11-29T07:44:36.243Z,17.33
2022-11-29T07:47:02.920Z,26.95
2022-11-29T07:49:32.647Z,36.03
2022-11-29T07:51:59.354Z,36.97
2022-11-29T07:54:26.170Z,26.95
2022-11-29T07:56:52.823Z,30.48
2022-11-29T07:59:20.136Z,41.35
2022-11-29T08:01:47.131Z,30.20
2022-11-29T08:04:14.191Z,51.07
2022-11-29T08:06:40.925Z,26.58
2022-11-29T08:09:07.704Z,24.05
2022-11-29T08:11:34.303Z,19.40
2022-11-29T08:14:03.042Z,18.95
2022-11-29T08:16:30.304Z,25.07
2022-11-29T08:18:56.938Z,32.60
2022-11-29T08:21:23.672Z,23.60
2022-11-29T08:23:51.557Z,21.67
2022-11-29T08:26:19.376Z,21.92
2022-11-29T08:28:51.884Z,23.07
2022-11-29T08:31:20.452Z,22.70
2022-11-29T08:33:50.542Z,28.73
2022-11-29T08:36:20.967Z,24.63
2022-11-29T08:38:48.397Z,33.05
2022-11-29T08:41:16.818Z,28.13
2022-11-29T08:43:44.401Z,25.15
2022-11-29T08:46:17.969Z,18.70
2022-11-29T08:48:45.113Z,24.63
2022-11-29T08:51:11.873Z,18.05
2022-11-29T08:53:41.661Z,19.97
2022-11-29T08:59:04.321Z,20.38
2022-11-29T09:01:31.055Z,16.50
2022-11-29T09:04:02.982Z,16.85
2022-11-29T09:06:37.626Z,19.20
2022-11-29T09:09:06.368Z,17.58
2022-11-29T09:11:34.692Z,14.50
2022-11-29T09:14:04.168Z,16.92
2022-11-29T09:16:33.806Z,14.55
2022-11-29T09:19:00.675Z,12.93
2022-11-29T09:21:29.526Z,11.18
2022-11-29T09:23:59.351Z,15.23
2022-11-29T09:26:30.059Z,16.65
2022-11-29T09:29:01.144Z,19.38
2022-11-29T09:31:28.986Z,23.33
2022-11-29T09:33:57.094Z,21.45
2022-11-29T09:36:28.494Z,17.67
2022-11-29T09:38:56.807Z,25.75
2022-11-29T09:41:48.751Z,14.05
2022-11-29T09:44:38.739Z,23.23
2022-11-29T09:47:28.292Z,11.07
2022-11-29T09:50:24.486Z,12.98
2022-11-29T09:53:26.770Z,13.85
2022-11-29T09:56:16.053Z,17.20
2022-11-29T09:58:57.210Z,14.67
2022-11-29T10:01:30.938Z,18.33
2022-11-29T10:04:05.971Z,22.33
2022-11-29T10:06:41.016Z,13.60
2022-11-29T10:09:17.332Z,22.30
2022-11-29T10:11:57.079Z,14.90
2022-11-29T10:14:29.660Z,12.45
2022-11-29T10:17:18.237Z,18.63
2022-11-29T10:19:50.753Z,8.70
2022-11-29T10:22:39.148Z,8.38
2022-11-29T10:25:08.697Z,13.17
2022-11-29T10:27:39.906Z,12.68
2022-11-29T10:30:14.811Z,16.75
2022-11-29T10:32:44.227Z,8.93
2022-11-29T10:35:18.367Z,14.27
2022-11-29T10:38:22.293Z,12.33
2022-11-29T10:40:39.778Z,14.05
2022-11-29T10:43:06.465Z,15.35
2022-11-29T10:45:50.021Z,14.55
2022-11-29T10:48:19.361Z,11.88
2022-11-29T10:50:48.870Z,8.43
2022-11-29T10:53:20.246Z,12.10
2022-11-29T10:55:51.977Z,10.88
2022-11-29T10:58:27.894Z,13.93
2022-11-29T11:00:58.686Z,17.08
2022-11-29T11:03:33.983Z,10.53
2022-11-29T11:06:00.573Z,12.55
2022-11-29T11:08:28.828Z,13.32
2022-11-29T11:11:01.236Z,13.73
2022-11-29T11:13:31.030Z,14.15
2022-11-29T11:16:18.412Z,15.30
2022-11-29T11:18:49.938Z,11.98
2022-11-29T11:21:19.903Z,19.05
2022-11-29T11:23:54.005Z,11.13
2022-11-29T11:26:22.410Z,10.82
2022-11-29T11:29:03.260Z,16.13
2022-11-29T11:31:34.518Z,10.13
2022-11-29T11:34:34.260Z,15.32
2022-11-29T11:37:18.496Z,13.90
2022-11-29T11:39:47.847Z,13.95
2022-11-29T11:42:38.676Z,11.97
2022-11-29T11:45:27.958Z,18.73
2022-11-29T11:48:13.752Z,13.82
2022-11-29T11:50:44.725Z,13.30
2022-11-29T11:53:29.184Z,15.60
2022-11-29T11:56:00.577Z,16.63
2022-11-29T11:58:29.586Z,17.92
2022-11-29T12:01:13.537Z,15.95
2022-11-29T12:03:57.040Z,8.77
2022-11-29T12:06:36.288Z,12.63
2022-11-29T12:09:05.731Z,17.60
2022-11-29T12:11:41.298Z,21.67
2022-11-29T12:14:16.178Z,13.55
2022-11-29T12:16:43.388Z,14.55
2022-11-29T12:19:21.744Z,12.35
2022-11-29T12:21:53.157Z,18.17
2022-11-29T12:24:37.995Z,16.60
2022-11-29T12:27:06.195Z,16.90
2022-11-29T12:29:34.571Z,14.18
2022-11-29T12:32:04.238Z,14.65
2022-11-29T12:34:49.472Z,25.17
2022-11-29T12:37:57.901Z,19.42
2022-11-29T12:41:06.450Z,12.82
2022-11-29T12:43:49.574Z,17.80
2022-11-29T12:46:26.043Z,20.55
2022-11-29T12:49:05.619Z,12.27
2022-11-29T12:52:02.052Z,15.57
2022-11-29T12:54:58.310Z,11.88
2022-11-29T12:57:49.426Z,12.30
2022-11-29T13:00:18.997Z,13.15
2022-11-29T13:02:54.609Z,13.37
2022-11-29T13:05:41.558Z,14.55
2022-11-29T13:08:28.435Z,14.68
2022-11-29T13:11:06.978Z,11.48
2022-11-29T13:13:50.012Z,11.75
2022-11-29T13:16:54.342Z,19.40
2022-11-29T13:19:55.573Z,14.25
2022-11-29T13:22:42.888Z,10.88
2022-11-29T13:25:26.874Z,11.43
2022-11-29T13:28:02.439Z,15.95
2022-11-29T13:30:29.506Z,14.57
2022-11-29T13:33:06.846Z,7.85
2022-11-29T13:35:41.755Z,11.13
2022-11-29T13:38:19.083Z,12.75
2022-11-29T13:40:52.191Z,12.73
2022-11-29T13:43:41.604Z,16.50
2022-11-29T13:46:26.454Z,11.82
2022-11-29T13:48:54.708Z,13.75
2022-11-29T13:51:25.889Z,12.05
2022-11-29T13:53:56.897Z,11.50
2022-11-29T13:56:33.580Z,14.07
2022-11-29T13:59:03.621Z,13.23
2022-11-29T14:01:42.500Z,15.02
2022-11-29T14:04:26.636Z,10.48
2022-11-29T14:07:04.283Z,12.20
2022-11-29T14:09:47.533Z,13.63
2022-11-29T14:12:21.201Z,11.95
2022-11-29T14:15:05.785Z,9.68
2022-11-29T14:17:50.687Z,14.02
2022-11-29T14:20:23.340Z,12.70
2022-11-29T14:23:08.004Z,11.83
2022-11-29T14:26:00.987Z,7.70
2022-11-29T14:28:38.749Z,8.05
2022-11-29T14:31:07.379Z,13.93
2022-11-29T14:34:16.592Z,7.72
2022-11-29T14:36:54.825Z,9.63
2022-11-29T14:39:28.094Z,13.82
2022-11-29T14:42:17.094Z,9.25
2022-11-29T14:44:53.027Z,10.20
2022-11-29T14:47:34.648Z,10.25
2022-11-29T14:50:07.588Z,11.20
2022-11-29T14:52:38.964Z,10.07
2022-11-29T14:55:18.703Z,16.38
2022-11-29T14:57:49.639Z,10.82
2022-11-29T15:00:22.739Z,12.13
2022-11-29T15:03:12.116Z,12.37
2022-11-29T15:05:43.579Z,17.02
2022-11-29T15:08:28.113Z,7.47
2022-11-29T15:11:06.467Z,11.10
2022-11-29T15:13:41.069Z,14.65
2022-11-29T15:16:38.846Z,13.60
2022-11-29T15:19:41.736Z,11.48
2022-11-29T15:22:18.514Z,20.60
2022-11-29T15:25:14.510Z,9.85
2022-11-29T15:30:52.507Z,9.30
2022-11-29T15:33:26.201Z,14.93
2022-11-29T15:35:57.065Z,10.65
2022-11-29T15:38:27.549Z,18.50
2022-11-29T15:40:58.764Z,11.40
2022-11-29T15:43:37.341Z,14.83
2022-11-29T15:46:06.622Z,19.90
2022-11-29T15:48:36.160Z,19.48
2022-11-29T15:51:18.724Z,18.60
2022-11-29T15:54:12.371Z,18.27
2022-11-29T15:56:48.092Z,11.13
2022-11-29T15:59:36.024Z,18.58
2022-11-29T16:02:18.618Z,11.00
2022-11-29T16:04:51.105Z,8.52
2022-11-29T16:07:21.509Z,18.40
2022-11-29T16:09:56.619Z,16.50
2022-11-29T16:12:26.314Z,12.15
2022-11-29T16:14:57.934Z,13.73
2022-11-29T16:17:32.132Z,13.45
2022-11-29T16:20:19.850Z,12.23
2022-11-29T16:22:49.154Z,10.43
2022-11-29T16:25:21.526Z,12.43
2022-11-29T16:27:55.028Z,12.23
2022-11-29T16:30:25.893Z,17.40
2022-11-29T16:33:00.585Z,11.60
2022-11-29T16:35:37.580Z,13.50
2022-11-29T16:38:06.258Z,12.18
2022-11-29T16:40:36.540Z,14.13
2022-11-29T16:43:06.595Z,13.68
2022-11-29T16:45:36.528Z,12.48
2022-11-29T16:48:24.516Z,11.77
2022-11-29T16:51:19.344Z,14.88
2022-11-29T16:53:55.029Z,12.85
2022-11-29T16:56:26.135Z,11.38
2022-11-29T16:59:25.482Z,17.98
2022-11-29T17:01:43.368Z,17.33
2022-11-29T17:04:09.884Z,15.25
2022-11-29T17:06:37.110Z,11.18
2022-11-29T17:09:04.404Z,15.00
2022-11-29T17:11:32.553Z,22.15
2022-11-29T17:13:59.285Z,16.33
2022-11-29T17:16:26.022Z,10.80
2022-11-29T17:18:53.018Z,21.70
2022-11-29T17:21:21.397Z,16.13
2022-11-29T17:23:48.835Z,12.93
2022-11-29T17:26:15.595Z,14.50
2022-11-29T17:28:47.350Z,17.15
2022-11-29T17:31:16.276Z,14.80
2022-11-29T17:33:43.316Z,14.45
2022-11-29T17:36:12.616Z,13.73
2022-11-29T17:38:39.156Z,14.17
2022-11-29T17:41:08.512Z,14.27
2022-11-29T17:43:36.719Z,14.73
2022-11-29T17:46:17.251Z,12.18
2022-11-29T17:48:46.193Z,8.88
2022-11-29T17:51:43.608Z,15.93
2022-11-29T17:54:04.488Z,14.40
2022-11-29T17:56:31.375Z,10.68
2022-11-29T17:59:00.245Z,11.10
2022-11-29T18:01:29.159Z,14.65
2022-11-29T18:03:58.086Z,8.63
2022-11-29T18:06:27.164Z,10.23
2022-11-29T18:08:56.649Z,10.30
2022-11-29T18:11:24.859Z,11.05
2022-11-29T18:13:53.678Z,10.60
2022-11-29T18:16:35.268Z,10.70
2022-11-29T18:19:08.308Z,13.95
2022-11-29T18:21:35.645Z,9.88
2022-11-29T18:24:04.356Z,7.90
2022-11-29T18:26:32.901Z,8.02
2022-11-29T18:28:59.953Z,9.33
2022-11-29T18:31:29.765Z,11.63
2022-11-29T18:34:05.981Z,13.27
2022-11-29T18:36:35.446Z,13.48
2022-11-29T18:39:05.051Z,12.20
2022-11-29T18:41:32.110Z,9.33
2022-11-29T18:44:02.954Z,11.75
2022-11-29T18:46:33.059Z,9.85
2022-11-29T18:49:01.330Z,10.00
2022-11-29T18:51:29.847Z,7.90
2022-11-29T18:53:57.088Z,11.03
2022-11-29T18:56:26.000Z,11.05
2022-11-29T18:58:58.506Z,13.35
2022-11-29T19:01:28.086Z,9.32
2022-11-29T19:03:56.994Z,11.50
2022-11-29T19:06:27.940Z,11.13
2022-11-29T19:08:54.850Z,8.68
2022-11-29T19:11:23.536Z,8.57
2022-11-29T19:13:56.805Z,7.47
2022-11-29T19:16:25.647Z,10.73
2022-11-29T19:18:54.895Z,10.93
2022-11-29T19:21:23.047Z,7.28
2022-11-29T19:23:54.520Z,9.32
2022-11-29T19:26:22.310Z,6.78
2022-11-29T19:28:49.967Z,8.23
2022-11-29T19:31:18.701Z,7.80
2022-11-29T19:33:45.839Z,6.30
2022-11-29T19:36:19.820Z,5.90
2022-11-29T19:38:51.673Z,12.80
2022-11-29T19:41:23.192Z,8.63
2022-11-29T19:43:50.509Z,6.33
2022-11-29T19:46:20.840Z,10.55
2022-11-29T19:48:48.010Z,8.48
2022-11-29T19:51:19.175Z,10.07
2022-11-29T19:53:46.996Z,6.13
2022-11-29T19:56:17.449Z,7.10
2022-11-29T19:58:44.398Z,8.77
2022-11-29T20:01:17.552Z,6.43
2022-11-29T20:03:47.408Z,8.70
2022-11-29T20:06:16.129Z,6.28
2022-11-29T20:08:43.135Z,9.87
2022-11-29T20:11:11.261Z,8.45
2022-11-29T20:13:38.876Z,11.43
2022-11-29T20:16:09.856Z,14.25
2022-11-29T20:18:39.280Z,10.52
2022-11-29T20:21:08.132Z,8.13
2022-11-29T20:23:34.956Z,9.93
2022-11-29T20:26:01.842Z,6.97
2022-11-29T20:28:28.424Z,11.30
2022-11-29T20:30:55.379Z,10.00
2022-11-29T20:33:23.908Z,7.70
2022-11-29T20:36:02.237Z,5.32
2022-11-29T20:38:37.487Z,8.48
2022-11-29T20:41:14.873Z,7.63
2022-11-29T20:43:48.039Z,7.28
2022-11-29T20:46:14.775Z,6.77
2022-11-29T20:48:41.619Z,7.88
2022-11-29T20:51:10.973Z,8.68
2022-11-29T20:53:42.903Z,9.57
2022-11-29T20:56:11.397Z,7.20
2022-11-29T20:58:39.050Z,7.10
2022-11-29T21:01:06.556Z,5.60
2022-11-29T21:03:33.357Z,11.68
2022-11-29T21:06:03.014Z,5.47
2022-11-29T21:08:32.986Z,7.63
2022-11-29T21:11:08.993Z,8.10
2022-11-29T21:13:35.785Z,8.23
2022-11-29T21:16:20.993Z,11.35
2022-11-29T21:18:59.531Z,6.20
2022-11-29T21:22:11.252Z,6.57
2022-11-29T21:25:01.832Z,5.87
2022-11-29T21:27:32.837Z,14.68
2022-11-29T21:30:00.693Z,9.75
2022-11-29T21:32:27.762Z,13.05
2022-11-29T21:34:54.223Z,6.40
2022-11-29T21:37:25.029Z,7.63
2022-11-29T21:39:53.112Z,7.07
2022-11-29T21:42:20.382Z,7.25
2022-11-29T21:44:47.453Z,9.10
2022-11-29T21:47:14.358Z,8.73
2022-11-29T21:49:40.894Z,8.83
2022-11-29T21:52:07.662Z,6.78
2022-11-29T21:54:34.345Z,10.30
2022-11-29T21:57:01.693Z,7.63
2022-11-29T21:59:30.159Z,10.40
2022-11-29T22:01:57.134Z,5.77
2022-11-29T22:04:23.949Z,8.50
2022-11-29T22:06:50.841Z,10.88
2022-11-29T22:09:17.638Z,14.63
2022-11-29T22:11:44.625Z,17.27
2022-11-29T22:14:13.739Z,11.93
2022-11-29T22:16:46.259Z,11.35
2022-11-29T22:19:14.754Z,10.70
2022-11-29T22:21:47.002Z,10.45
2022-11-29T22:24:15.351Z,11.50
2022-11-29T22:26:43.780Z,9.47
2022-11-29T22:29:11.414Z,10.90
2022-11-29T22:31:38.391Z,9.45
2022-11-29T22:34:05.179Z,15.05
2022-11-29T22:36:31.842Z,9.68
2022-11-29T22:38:58.518Z,11.23
2022-11-29T22:41:25.679Z,9.80
2022-11-29T22:43:53.033Z,10.60
2022-11-29T22:46:22.209Z,13.23
2022-11-29T22:48:52.490Z,12.02
2022-11-29T22:51:21.743Z,12.00
2022-11-29T22:53:53.659Z,11.23
2022-11-29T22:56:21.376Z,12.43
2022-11-29T22:58:48.121Z,14.43
2022-11-29T23:01:20.290Z,10.15
2022-11-29T23:03:54.459Z,13.30
2022-11-29T23:06:29.453Z,13.43
2022-11-29T23:08:58.433Z,12.77
2022-11-29T23:11:27.717Z,14.57
2022-11-29T23:13:54.996Z,13.00
2022-11-29T23:16:23.963Z,12.57
2022-11-29T23:18:50.822Z,15.02
2022-11-29T23:21:27.027Z,19.65
2022-11-29T23:23:56.556Z,15.63
2022-11-29T23:26:26.817Z,15.45
2022-11-29T23:28:54.821Z,12.90
2022-11-29T23:31:25.195Z,15.95
2022-11-29T23:33:51.859Z,16.30
2022-11-29T23:36:18.859Z,12.10
2022-11-29T23:38:45.723Z,12.73
2022-11-29T23:41:12.747Z,16.27
2022-11-29T23:43:41.075Z,16.15
2022-11-29T23:46:16.748Z,12.95
2022-11-29T23:48:43.968Z,13.25
2022-11-29T23:51:11.309Z,14.45
2022-11-29T23:53:38.172Z,17.53
2022-11-29T23:56:08.588Z,16.25
2022-11-29T23:58:35.069Z,16.55
